TFM - Tactical Decision Aid
ID: Runway Winds: CIG/VIS Threshold:

KLAX - Los Angeles Intl, CA, US

Updated at: 2151 UTC 23 Apr 2019
Latest TAF at: 2052 UTC 23 Apr 2019

TAF Board

Time2053Z 23/22Z 23/23Z 24/00Z 24/01Z 24/02Z 24/03Z 24/04Z 24/05Z 24/06Z 24/07Z 24/08Z 24/09Z 24/10Z>>
Type OBS PRVL PRVL PRVL PRVL PRVL PRVL PRVL PRVL PRVL PRVL PRVL PRVL PRVL
VIS 10 >6 >6 >6 >6 >6 >6 >6 >6 >6 >6 >6 >6 >6
CIG -- -- -- -- -- -- -- 10 10 10 10 10 10 10
Cover SCT SCT SCT SCT SCT SCT SCT BKN BKN BKN BKN BKN BKN BKN
FltCat VFR VFR VFR VFR VFR VFR VFR MVFR MVFR MVFR MVFR MVFR MVFR MVFR
WX -- -- -- -- -- -- -- -- -- -- -- -- -- --
WDir 240 240 240 240 240 240 240 VRB VRB VRB VRB VRB VRB VRB
WSpd 10 10 10 10 10 10 10 3 3 3 3 3 3 3
WGst -- -- -- -- -- -- -- -- -- -- -- -- -- --

TDA Impact Legend

  None Marginal Slight Moderate High
Visibility (sm) >5 3≤X≤5 1≤X<3 0.5≤X<1 <0.5
Ceiling (100 ft) >30 10≤X≤30 4≤X<10 2≤X<4 <2
Wind Speed (kt) <15 15≤X<25 25≤X<30 ≥30
Wind Gust (kt) <15 15≤X<25 25≤X<35 ≥35
Weather No Wx Reported VCTS -TS,-FZRA TS,FZRA +TS,+FZRA
TAF
KLAX 232052Z 2321/2424 24010KT P6SM FEW015 FEW090 SCT180
  FM240400 VRB03KT P6SM BKN010
  FM241200 12006KT P6SM OVC015
  FM241700 23005KT P6SM SCT020
  FM242000 26012KT P6SM SCT025


METAR
KLAX 232053Z 24010KT 10SM FEW010 SCT027 SCT250 19/13 A2994 RMK AO2 SLP139 T01890133 58011
KLAX 231953Z 24010KT 10SM FEW025 FEW090 SCT180 20/14 A2996 RMK AO2 SLP143 T02000139
KLAX 231853Z 26010KT 10SM FEW020 FEW090 SCT180 20/13 A2997 RMK AO2 SLP149 T02000133

Radar Display
Forecast Discussion